Time;durP1;ratioP1;P1;durP2;ratioP2;P2;SDS_P1;SDS_P2;PMS_P1;PMS_P2;Temp;Humidity;BMP_temperature;BMP_pressure;BME280_temperature;BME280_humidity;BME280_pressure;Samples;Min_cycle;Max_cycle;Signal;HPM_P1;HPM_P2
2022/01/28 00:01:02;;;;;;;50.67;20.73;;;;;;;;;;5056853;28;20106;-84
2022/01/28 00:03:28;;;;;;;59.03;21.10;;;;;;;;;;5056413;28;20025;-84
2022/01/28 00:05:54;;;;;;;60.47;19.83;;;;;;;;;;5056606;28;20485;-84
2022/01/28 00:08:20;;;;;;;60.88;20.60;;;;;;;;;;5056712;28;20452;-83
2022/01/28 00:10:46;;;;;;;65.07;20.67;;;;;;;;;;5059897;28;20025;-83
2022/01/28 00:13:25;;;;;;;58.95;20.50;;;;;;;;;;5063444;28;20040;-82
2022/01/28 00:37:26;;;;;;;80.63;24.40;;;;;;;;;;5053860;28;20032;-83
2022/01/28 00:39:52;;;;;;;82.50;21.73;;;;;;;;;;5036106;28;20035;-83
2022/01/28 00:42:18;;;;;;;65.78;20.75;;;;;;;;;;5035661;28;20063;-83
2022/01/28 00:44:44;;;;;;;72.97;23.70;;;;;;;;;;5053844;28;20021;-83
2022/01/28 00:47:10;;;;;;;71.97;24.40;;;;;;;;;;5053902;28;20052;-83
2022/01/28 00:49:36;;;;;;;101.05;24.83;;;;;;;;;;5053543;28;20017;-83
2022/01/28 00:52:02;;;;;;;100.95;25.25;;;;;;;;;;5035588;28;20396;-83
2022/01/28 00:54:28;;;;;;;98.13;25.08;;;;;;;;;;5053437;28;20017;-83
2022/01/28 00:56:56;;;;;;;84.10;25.02;;;;;;;;;;5053975;28;20041;-83
2022/01/28 00:59:21;;;;;;;89.30;25.20;;;;;;;;;;5053997;28;20025;-83
2022/01/28 01:01:47;;;;;;;91.03;24.42;;;;;;;;;;5053453;28;20033;-83
2022/01/28 01:04:13;;;;;;;155.40;25.42;;;;;;;;;;5052243;28;20040;-83
2022/01/28 01:06:39;;;;;;;128.65;25.00;;;;;;;;;;5053558;28;20021;-83
2022/01/28 01:09:06;;;;;;;106.47;25.55;;;;;;;;;;5053417;28;20101;-83
2022/01/28 01:11:32;;;;;;;134.32;24.80;;;;;;;;;;5052905;28;20025;-83
2022/01/28 01:13:59;;;;;;;102.38;24.88;;;;;;;;;;5051930;28;20025;-83
2022/01/28 01:16:31;;;;;;;110.70;26.40;;;;;;;;;;5072051;28;20061;-83
2022/01/28 01:19:17;;;;;;;115.35;25.17;;;;;;;;;;5091701;28;20020;-84
2022/01/28 01:21:43;;;;;;;82.38;23.27;;;;;;;;;;5053318;28;20114;-83
2022/01/28 01:24:19;;;;;;;120.13;26.60;;;;;;;;;;5053463;28;20048;-83
2022/01/28 01:26:45;;;;;;;109.70;25.88;;;;;;;;;;5053640;28;20155;-83
2022/01/28 01:29:13;;;;;;;87.38;25.15;;;;;;;;;;5053754;28;20465;-84
2022/01/28 01:31:42;;;;;;;172.85;27.00;;;;;;;;;;5053566;28;20052;-84
2022/01/28 01:36:40;;;;;;;121.40;26.25;;;;;;;;;;5053454;28;20021;-83
2022/01/28 01:39:10;;;;;;;121.10;25.80;;;;;;;;;;5053496;28;20107;-83
2022/01/28 01:42:05;;;;;;;100.00;27.40;;;;;;;;;;5064004;28;20338;-84
2022/01/28 01:52:46;;;;;;;100.40;25.38;;;;;;;;;;5054756;28;20834;-83
2022/01/28 01:55:12;;;;;;;108.40;26.65;;;;;;;;;;5074601;28;20020;-83
2022/01/28 01:57:39;;;;;;;111.95;27.05;;;;;;;;;;5056219;28;20027;-84
2022/01/28 02:00:09;;;;;;;88.40;25.73;;;;;;;;;;5074276;28;20025;-83
2022/01/28 02:02:35;;;;;;;110.45;29.23;;;;;;;;;;5053022;28;20021;-83
2022/01/28 02:05:01;;;;;;;129.80;27.42;;;;;;;;;;5062595;28;20134;-83
2022/01/28 02:07:27;;;;;;;92.68;25.88;;;;;;;;;;5075053;28;20110;-84
2022/01/28 02:09:53;;;;;;;132.65;28.55;;;;;;;;;;5067387;28;20029;-84
2022/01/28 02:12:19;;;;;;;114.68;25.73;;;;;;;;;;5054362;28;20036;-83
2022/01/28 02:14:46;;;;;;;157.23;27.52;;;;;;;;;;5054471;28;20033;-84
2022/01/28 02:17:12;;;;;;;90.35;26.33;;;;;;;;;;5086328;28;20016;-83
2022/01/28 02:19:39;;;;;;;118.13;26.98;;;;;;;;;;5088022;28;20086;-84
2022/01/28 02:22:05;;;;;;;146.52;25.77;;;;;;;;;;5074509;28;20040;-84
2022/01/28 02:24:39;;;;;;;281.13;28.63;;;;;;;;;;5073974;28;20025;-84
2022/01/28 02:27:06;;;;;;;131.70;24.95;;;;;;;;;;5083614;28;20047;-84
2022/01/28 02:29:35;;;;;;;124.55;25.73;;;;;;;;;;5096129;28;20017;-84
2022/01/28 02:32:03;;;;;;;121.03;25.90;;;;;;;;;;5096372;28;20072;-83
2022/01/28 02:34:29;;;;;;;103.43;25.45;;;;;;;;;;5075136;28;20025;-84
2022/01/28 02:36:56;;;;;;;134.93;25.17;;;;;;;;;;5075927;28;20396;-84
2022/01/28 02:39:22;;;;;;;136.23;25.65;;;;;;;;;;5075928;28;20429;-84
2022/01/28 02:41:52;;;;;;;149.07;26.40;;;;;;;;;;5075860;28;20051;-83
2022/01/28 02:44:24;;;;;;;119.85;25.27;;;;;;;;;;5058106;28;20028;-84
2022/01/28 02:46:57;;;;;;;156.38;24.05;;;;;;;;;;5057375;28;20032;-84
2022/01/28 02:49:26;;;;;;;201.07;25.50;;;;;;;;;;5057441;28;20035;-84
2022/01/28 02:51:53;;;;;;;237.57;27.08;;;;;;;;;;5075223;28;20028;-84
2022/01/28 02:54:19;;;;;;;152.30;26.48;;;;;;;;;;5057503;28;20066;-84
2022/01/28 02:56:51;;;;;;;112.78;25.30;;;;;;;;;;5074615;28;20029;-84
2022/01/28 02:59:17;;;;;;;152.75;27.52;;;;;;;;;;5078588;28;20385;-84
2022/01/28 03:01:43;;;;;;;168.88;25.85;;;;;;;;;;5074993;28;20020;-84
2022/01/28 03:04:12;;;;;;;125.07;24.42;;;;;;;;;;5074638;28;20036;-84
2022/01/28 03:06:38;;;;;;;160.90;25.70;;;;;;;;;;5056335;28;20029;-84
2022/01/28 03:09:18;;;;;;;123.28;24.98;;;;;;;;;;5056957;28;20377;-84
2022/01/28 03:11:46;;;;;;;166.90;24.73;;;;;;;;;;5054696;28;20395;-84
2022/01/28 03:14:35;;;;;;;139.82;26.73;;;;;;;;;;5076586;28;20029;-85
2022/01/28 03:17:14;;;;;;;130.68;23.90;;;;;;;;;;5072535;28;20044;-83
2022/01/28 03:19:45;;;;;;;142.85;26.15;;;;;;;;;;5089125;28;20039;-84
2022/01/28 03:22:11;;;;;;;117.45;27.15;;;;;;;;;;5076300;28;20029;-84
2022/01/28 03:24:38;;;;;;;159.63;26.05;;;;;;;;;;5076755;28;20039;-84
2022/01/28 03:27:10;;;;;;;173.45;25.67;;;;;;;;;;5074912;28;20017;-84
2022/01/28 03:29:36;;;;;;;156.73;27.60;;;;;;;;;;5055577;28;20029;-84
2022/01/28 03:32:02;;;;;;;106.85;24.50;;;;;;;;;;5055340;28;20471;-84
2022/01/28 03:34:28;;;;;;;208.45;26.98;;;;;;;;;;5056835;28;20036;-84
2022/01/28 03:36:56;;;;;;;225.55;27.02;;;;;;;;;;5058942;28;20017;-84
2022/01/28 03:39:22;;;;;;;154.48;23.90;;;;;;;;;;5059137;28;20020;-85
2022/01/28 03:41:49;;;;;;;177.35;27.02;;;;;;;;;;5069322;28;20057;-84
2022/01/28 03:44:15;;;;;;;203.88;27.10;;;;;;;;;;5059640;28;20040;-84
2022/01/28 03:46:41;;;;;;;144.45;26.48;;;;;;;;;;5058088;28;20112;-84
2022/01/28 03:49:09;;;;;;;177.52;26.63;;;;;;;;;;5057832;28;20488;-84
2022/01/28 03:51:35;;;;;;;191.35;24.17;;;;;;;;;;5057445;28;20021;-85
2022/01/28 03:54:01;;;;;;;140.10;25.92;;;;;;;;;;5057788;28;20384;-84
2022/01/28 03:56:27;;;;;;;142.02;26.33;;;;;;;;;;5056528;28;20029;-84
2022/01/28 03:58:53;;;;;;;164.85;25.00;;;;;;;;;;5057449;28;20017;-84
2022/01/28 04:01:26;;;;;;;221.02;27.67;;;;;;;;;;5054387;28;20373;-84
2022/01/28 04:11:49;;;;;;;173.40;28.02;;;;;;;;;;5056233;28;20094;-84
2022/01/28 04:19:36;;;;;;;121.75;25.92;;;;;;;;;;5089064;28;20174;-84
2022/01/28 04:22:02;;;;;;;133.82;28.25;;;;;;;;;;5057468;28;20484;-84
2022/01/28 04:24:28;;;;;;;115.15;27.40;;;;;;;;;;5076364;28;20052;-84
2022/01/28 04:26:54;;;;;;;101.85;27.23;;;;;;;;;;5057217;28;20050;-84
2022/01/28 04:29:20;;;;;;;100.88;26.98;;;;;;;;;;5075871;28;20052;-84
2022/01/28 04:31:47;;;;;;;81.25;25.77;;;;;;;;;;5074695;28;20020;-84
2022/01/28 04:34:14;;;;;;;94.80;27.38;;;;;;;;;;5072008;28;20087;-84
2022/01/28 04:39:46;;;;;;;83.68;27.27;;;;;;;;;;5007608;28;20018;-84
2022/01/28 04:42:28;;;;;;;78.80;27.77;;;;;;;;;;5074876;28;20063;-84
2022/01/28 04:53:05;;;;;;;86.03;27.35;;;;;;;;;;5073705;28;20551;-84
2022/01/28 05:01:15;;;;;;;92.07;28.80;;;;;;;;;;5073816;28;20476;-83
2022/01/28 05:15:23;;;;;;;91.20;27.83;;;;;;;;;;5073407;28;20078;-82
2022/01/28 05:28:23;;;;;;;95.20;30.13;;;;;;;;;;5052943;28;20079;-83
2022/01/28 05:30:49;;;;;;;100.07;29.42;;;;;;;;;;5052813;28;20128;-83
2022/01/28 05:33:15;;;;;;;90.45;29.08;;;;;;;;;;5053226;28;20025;-83
2022/01/28 05:35:41;;;;;;;87.28;29.55;;;;;;;;;;5050892;28;20044;-83
2022/01/28 05:38:07;;;;;;;98.63;28.63;;;;;;;;;;5051164;28;20017;-83
2022/01/28 05:40:33;;;;;;;96.30;27.77;;;;;;;;;;5058556;28;20032;-84
2022/01/28 05:42:59;;;;;;;93.15;29.90;;;;;;;;;;5060486;28;20017;-83
2022/01/28 05:45:26;;;;;;;106.53;29.75;;;;;;;;;;5057323;28;20404;-83
2022/01/28 05:47:51;;;;;;;91.65;28.35;;;;;;;;;;5052776;28;20029;-83
2022/01/28 05:50:18;;;;;;;93.07;26.85;;;;;;;;;;5061064;28;20557;-83
2022/01/28 05:52:44;;;;;;;96.38;30.52;;;;;;;;;;5073060;28;20052;-83
2022/01/28 05:55:10;;;;;;;87.45;29.15;;;;;;;;;;5073431;28;20032;-83
2022/01/28 05:57:36;;;;;;;97.28;29.13;;;;;;;;;;5072846;28;20052;-83
2022/01/28 06:00:03;;;;;;;94.05;28.13;;;;;;;;;;5066053;28;20510;-82
2022/01/28 06:02:29;;;;;;;95.35;27.98;;;;;;;;;;5053464;28;20029;-83
2022/01/28 06:04:55;;;;;;;86.72;28.10;;;;;;;;;;5052525;28;20032;-83
2022/01/28 06:07:21;;;;;;;92.15;30.88;;;;;;;;;;5052847;28;20021;-83
2022/01/28 06:09:47;;;;;;;90.90;28.85;;;;;;;;;;5051872;28;20029;-83
2022/01/28 06:12:13;;;;;;;84.78;28.55;;;;;;;;;;5051313;28;20074;-83
2022/01/28 06:14:39;;;;;;;87.07;27.13;;;;;;;;;;5053066;28;20476;-83
2022/01/28 06:17:05;;;;;;;92.75;29.30;;;;;;;;;;5073234;28;20029;-84
2022/01/28 06:19:31;;;;;;;88.93;29.83;;;;;;;;;;5058332;28;20749;-83
2022/01/28 06:21:57;;;;;;;90.00;27.33;;;;;;;;;;5075137;28;20496;-83
2022/01/28 06:24:23;;;;;;;76.43;27.05;;;;;;;;;;5055153;28;20021;-83
2022/01/28 06:26:49;;;;;;;94.53;30.13;;;;;;;;;;5073730;28;20035;-83
2022/01/28 06:29:15;;;;;;;87.82;27.52;;;;;;;;;;5074377;28;20095;-83
2022/01/28 06:31:42;;;;;;;72.22;26.15;;;;;;;;;;5071249;28;20603;-83
2022/01/28 06:34:08;;;;;;;86.32;27.90;;;;;;;;;;5073181;28;20760;-83
2022/01/28 06:36:35;;;;;;;92.38;28.48;;;;;;;;;;5073438;28;20032;-83
2022/01/28 06:39:01;;;;;;;92.18;29.45;;;;;;;;;;5073986;28;20111;-83
2022/01/28 06:41:27;;;;;;;82.45;27.13;;;;;;;;;;5085567;28;20032;-83
2022/01/28 06:43:53;;;;;;;82.43;27.60;;;;;;;;;;5078730;28;20039;-86
2022/01/28 06:46:19;;;;;;;75.20;26.23;;;;;;;;;;5074517;28;20035;-87
2022/01/28 06:48:45;;;;;;;75.85;28.13;;;;;;;;;;5077690;28;20100;-87
2022/01/28 06:51:11;;;;;;;92.70;30.30;;;;;;;;;;5056317;28;20052;-86
2022/01/28 06:53:37;;;;;;;85.10;29.23;;;;;;;;;;5057504;28;20036;-82
2022/01/28 06:56:03;;;;;;;81.18;28.17;;;;;;;;;;5059304;28;20059;-82
2022/01/28 06:58:29;;;;;;;79.15;29.30;;;;;;;;;;5058774;28;20046;-82
2022/01/28 07:00:55;;;;;;;74.22;27.70;;;;;;;;;;5057923;28;20540;-82
2022/01/28 07:03:21;;;;;;;63.58;25.77;;;;;;;;;;5061312;28;20029;-82
2022/01/28 07:05:47;;;;;;;77.07;27.50;;;;;;;;;;5076003;28;20508;-84
2022/01/28 07:08:13;;;;;;;73.47;27.45;;;;;;;;;;5057931;28;20028;-82
2022/01/28 07:10:39;;;;;;;73.20;27.23;;;;;;;;;;5057235;28;20017;-82
2022/01/28 07:13:05;;;;;;;66.10;27.23;;;;;;;;;;5057915;28;20028;-83
2022/01/28 07:15:31;;;;;;;71.15;26.33;;;;;;;;;;5078079;28;20017;-83
2022/01/28 07:18:01;;;;;;;69.93;28.33;;;;;;;;;;5096299;28;20032;-83
2022/01/28 07:20:29;;;;;;;78.28;27.42;;;;;;;;;;5079869;28;20531;-83
2022/01/28 07:22:55;;;;;;;79.32;27.02;;;;;;;;;;5077192;28;20033;-83
2022/01/28 07:25:21;;;;;;;71.97;24.95;;;;;;;;;;5073073;28;20102;-83
2022/01/28 07:27:47;;;;;;;78.50;28.40;;;;;;;;;;5057248;28;20055;-84
2022/01/28 07:30:14;;;;;;;82.63;27.92;;;;;;;;;;5069832;28;20025;-83
2022/01/28 07:32:40;;;;;;;78.78;28.83;;;;;;;;;;5056966;28;20511;-82
2022/01/28 07:35:06;;;;;;;76.95;27.80;;;;;;;;;;5056791;28;20036;-83
2022/01/28 07:37:32;;;;;;;66.88;26.10;;;;;;;;;;5046908;28;20017;-84
2022/01/28 07:40:01;;;;;;;82.57;28.08;;;;;;;;;;5037854;28;20021;-83
2022/01/28 07:42:27;;;;;;;72.93;28.05;;;;;;;;;;5038761;28;20088;-83
2022/01/28 07:44:53;;;;;;;75.43;26.33;;;;;;;;;;5062531;28;20044;-82
2022/01/28 07:47:19;;;;;;;81.43;29.45;;;;;;;;;;5090668;28;20035;-83
2022/01/28 07:49:46;;;;;;;77.97;26.02;;;;;;;;;;5083452;28;20075;-83
2022/01/28 07:52:12;;;;;;;79.13;28.13;;;;;;;;;;5080256;28;20024;-83
2022/01/28 07:54:44;;;;;;;78.55;29.23;;;;;;;;;;5071728;28;20726;-84
2022/01/28 07:57:11;;;;;;;75.35;29.45;;;;;;;;;;5069293;28;20023;-84
2022/01/28 07:59:36;;;;;;;68.47;26.70;;;;;;;;;;5064771;28;20056;-84
2022/01/28 08:02:03;;;;;;;69.43;25.88;;;;;;;;;;5041395;28;20040;-84
2022/01/28 08:04:28;;;;;;;75.75;26.83;;;;;;;;;;5059393;28;20028;-84
2022/01/28 08:06:55;;;;;;;68.40;25.75;;;;;;;;;;5057963;28;20369;-84
2022/01/28 08:09:21;;;;;;;73.03;25.50;;;;;;;;;;5051747;28;20033;-86
2022/01/28 08:11:47;;;;;;;65.05;26.80;;;;;;;;;;5057671;28;20088;-86
2022/01/28 08:14:14;;;;;;;72.70;27.27;;;;;;;;;;5057651;28;20492;-84
2022/01/28 08:16:40;;;;;;;68.18;24.10;;;;;;;;;;5061686;28;20044;-84
2022/01/28 08:19:07;;;;;;;65.40;24.55;;;;;;;;;;5091772;28;20091;-84
2022/01/28 08:21:33;;;;;;;74.15;26.15;;;;;;;;;;5097730;28;20360;-84
2022/01/28 08:23:59;;;;;;;59.15;24.77;;;;;;;;;;5097473;28;20442;-85
2022/01/28 08:26:25;;;;;;;67.88;26.08;;;;;;;;;;5081824;28;20060;-83
2022/01/28 08:28:51;;;;;;;70.65;26.83;;;;;;;;;;5077229;28;20024;-84
2022/01/28 08:31:17;;;;;;;63.35;25.00;;;;;;;;;;5060147;28;20033;-84
2022/01/28 08:33:43;;;;;;;57.67;25.42;;;;;;;;;;5077496;28;20025;-84
2022/01/28 08:36:10;;;;;;;58.20;24.42;;;;;;;;;;5076541;28;20081;-84
2022/01/28 08:38:39;;;;;;;59.50;24.83;;;;;;;;;;5076824;28;20108;-85
2022/01/28 08:41:06;;;;;;;63.33;24.88;;;;;;;;;;5058143;28;20027;-85
2022/01/28 08:43:33;;;;;;;61.78;23.98;;;;;;;;;;5076459;28;20027;-85
2022/01/28 08:46:00;;;;;;;67.20;26.90;;;;;;;;;;5078301;28;20020;-84
2022/01/28 08:48:26;;;;;;;59.97;23.23;;;;;;;;;;5076575;28;20021;-85
2022/01/28 08:50:53;;;;;;;65.68;24.38;;;;;;;;;;5076432;28;20074;-84
2022/01/28 08:53:19;;;;;;;54.88;23.95;;;;;;;;;;5076986;28;20056;-84
2022/01/28 08:55:45;;;;;;;55.03;23.15;;;;;;;;;;5086169;28;20029;-84
2022/01/28 08:58:13;;;;;;;60.63;23.48;;;;;;;;;;5058393;28;20104;-84
2022/01/28 09:00:40;;;;;;;51.80;22.70;;;;;;;;;;5053021;28;20438;-83
2022/01/28 09:03:06;;;;;;;60.00;22.60;;;;;;;;;;5080104;28;20016;-83
2022/01/28 09:05:33;;;;;;;58.45;22.50;;;;;;;;;;5061957;28;20024;-83
2022/01/28 09:08:05;;;;;;;66.68;23.52;;;;;;;;;;5059829;28;20013;-83
2022/01/28 09:10:32;;;;;;;51.50;23.02;;;;;;;;;;5058389;28;20094;-85
2022/01/28 09:15:30;;;;;;;64.50;22.45;;;;;;;;;;5060762;28;20667;-84
2022/01/28 09:17:57;;;;;;;59.08;24.95;;;;;;;;;;5106466;28;20028;-84
2022/01/28 09:20:23;;;;;;;59.97;23.23;;;;;;;;;;5085103;28;20028;-83
2022/01/28 09:22:49;;;;;;;58.15;22.00;;;;;;;;;;5075918;28;20085;-84
2022/01/28 09:25:15;;;;;;;61.13;22.98;;;;;;;;;;5077276;28;20369;-84
2022/01/28 09:27:41;;;;;;;60.35;23.75;;;;;;;;;;5075582;28;20031;-86
2022/01/28 09:30:08;;;;;;;52.58;22.02;;;;;;;;;;5075529;28;20491;-83
2022/01/28 09:32:34;;;;;;;59.17;24.50;;;;;;;;;;5057746;28;20543;-84
2022/01/28 09:35:01;;;;;;;58.70;23.17;;;;;;;;;;5074666;28;20021;-85
2022/01/28 09:37:27;;;;;;;55.17;23.70;;;;;;;;;;5077344;28;20103;-84
2022/01/28 09:39:53;;;;;;;59.35;23.60;;;;;;;;;;5054799;28;20052;-83
2022/01/28 09:42:22;;;;;;;58.10;23.90;;;;;;;;;;5078417;28;20060;-83
2022/01/28 09:44:48;;;;;;;64.20;22.67;;;;;;;;;;5065523;28;20178;-83
2022/01/28 09:47:15;;;;;;;61.65;24.38;;;;;;;;;;5042041;28;20033;-82
2022/01/28 09:49:42;;;;;;;62.35;25.42;;;;;;;;;;5047715;28;20052;-82
2022/01/28 09:52:08;;;;;;;62.28;23.60;;;;;;;;;;5053372;28;20060;-83
2022/01/28 09:54:35;;;;;;;61.25;24.00;;;;;;;;;;5053361;28;20036;-83
2022/01/28 09:57:02;;;;;;;69.97;26.63;;;;;;;;;;5037086;28;20399;-82
2022/01/28 09:59:28;;;;;;;55.63;22.65;;;;;;;;;;5036861;28;20024;-83
2022/01/28 10:01:54;;;;;;;60.83;24.55;;;;;;;;;;5054199;28;20032;-82
2022/01/28 10:04:21;;;;;;;78.82;24.52;;;;;;;;;;5053044;28;20404;-82
2022/01/28 10:06:47;;;;;;;57.90;24.63;;;;;;;;;;5054254;28;20029;-82
2022/01/28 10:09:22;;;;;;;59.50;23.30;;;;;;;;;;5071367;28;20016;-83
2022/01/28 10:11:51;;;;;;;56.47;23.55;;;;;;;;;;5081335;28;20036;-81
2022/01/28 10:14:23;;;;;;;55.58;23.52;;;;;;;;;;5095768;28;20099;-82
2022/01/28 10:16:56;;;;;;;57.55;22.23;;;;;;;;;;5065036;28;20040;-83
2022/01/28 10:19:24;;;;;;;53.08;23.30;;;;;;;;;;5082360;28;20016;-82
2022/01/28 10:21:53;;;;;;;60.85;20.60;;;;;;;;;;5072849;28;20024;-83
2022/01/28 10:24:22;;;;;;;58.63;22.23;;;;;;;;;;5081732;28;20031;-82
2022/01/28 10:27:05;;;;;;;54.08;21.92;;;;;;;;;;5081332;28;20036;-82
2022/01/28 10:29:33;;;;;;;60.90;22.33;;;;;;;;;;5062818;28;20163;-82
2022/01/28 10:32:05;;;;;;;59.80;21.70;;;;;;;;;;5080158;28;20031;-82
2022/01/28 10:34:33;;;;;;;52.33;20.98;;;;;;;;;;5081229;28;20029;-83
2022/01/28 10:37:19;;;;;;;51.42;22.55;;;;;;;;;;5062122;28;20035;-82
2022/01/28 10:39:48;;;;;;;57.40;23.83;;;;;;;;;;5081421;28;20032;-82
2022/01/28 10:42:16;;;;;;;65.22;22.42;;;;;;;;;;5084953;28;20025;-81
2022/01/28 10:44:53;;;;;;;59.35;22.17;;;;;;;;;;5102131;28;20024;-82
2022/01/28 10:47:33;;;;;;;52.40;22.20;;;;;;;;;;5084769;28;20052;-82
2022/01/28 10:50:00;;;;;;;53.65;20.88;;;;;;;;;;5082848;28;20052;-83
2022/01/28 10:52:33;;;;;;;59.78;21.52;;;;;;;;;;5076781;28;20544;-83
2022/01/28 10:54:59;;;;;;;55.25;23.40;;;;;;;;;;5080476;28;20025;-83
2022/01/28 10:57:25;;;;;;;51.63;21.35;;;;;;;;;;5063129;28;20031;-82
2022/01/28 10:59:53;;;;;;;54.50;22.48;;;;;;;;;;5093870;28;20020;-81
2022/01/28 11:02:19;;;;;;;50.30;22.23;;;;;;;;;;5084247;28;20020;-81
2022/01/28 11:04:46;;;;;;;53.33;23.35;;;;;;;;;;5083538;28;20090;-83
2022/01/28 11:07:12;;;;;;;49.47;20.73;;;;;;;;;;5066248;28;20021;-82
2022/01/28 11:09:40;;;;;;;49.45;20.98;;;;;;;;;;5084352;28;20108;-84
2022/01/28 11:12:07;;;;;;;46.88;20.65;;;;;;;;;;5061630;28;20035;-82
2022/01/28 11:14:33;;;;;;;51.75;20.77;;;;;;;;;;5082412;28;20031;-83
2022/01/28 11:17:00;;;;;;;50.83;19.77;;;;;;;;;;5070506;28;20425;-82
2022/01/28 11:19:28;;;;;;;46.42;19.85;;;;;;;;;;5092297;28;20031;-82
2022/01/28 11:21:54;;;;;;;53.55;20.52;;;;;;;;;;5097727;28;20020;-83
2022/01/28 11:24:20;;;;;;;51.90;20.77;;;;;;;;;;5097251;28;20055;-83
2022/01/28 11:26:46;;;;;;;49.80;20.98;;;;;;;;;;5098289;28;20317;-83
2022/01/28 11:29:18;;;;;;;45.92;19.23;;;;;;;;;;5101968;28;20077;-83
2022/01/28 11:31:52;;;;;;;50.55;20.38;;;;;;;;;;5100426;28;20443;-82
2022/01/28 11:34:25;;;;;;;48.72;20.95;;;;;;;;;;5097632;28;20032;-83
2022/01/28 11:36:54;;;;;;;43.97;19.75;;;;;;;;;;5080985;28;20023;-83
2022/01/28 11:39:44;;;;;;;42.80;18.63;;;;;;;;;;5098676;28;20024;-83
2022/01/28 11:42:12;;;;;;;42.85;19.48;;;;;;;;;;5081124;28;20066;-82
2022/01/28 11:44:41;;;;;;;51.88;20.65;;;;;;;;;;5098137;28;20032;-83
2022/01/28 11:47:09;;;;;;;42.75;20.63;;;;;;;;;;5079284;28;20063;-82
2022/01/28 11:49:53;;;;;;;52.65;21.17;;;;;;;;;;5084326;28;20028;-82
2022/01/28 11:52:42;;;;;;;48.80;19.98;;;;;;;;;;5085265;28;20052;-82
2022/01/28 11:55:26;;;;;;;47.30;18.60;;;;;;;;;;5071462;28;20036;-82
2022/01/28 11:57:55;;;;;;;45.45;18.58;;;;;;;;;;5080499;28;20564;-81
2022/01/28 12:00:23;;;;;;;41.00;18.98;;;;;;;;;;5075608;28;20020;-81
2022/01/28 12:02:53;;;;;;;39.30;18.63;;;;;;;;;;5077312;28;20036;-85
2022/01/28 12:05:25;;;;;;;42.78;18.65;;;;;;;;;;5075507;28;20028;-83
2022/01/28 12:07:51;;;;;;;41.35;18.45;;;;;;;;;;5077348;28;20066;-83
2022/01/28 12:10:18;;;;;;;41.05;18.30;;;;;;;;;;5075259;28;20008;-83
2022/01/28 12:12:45;;;;;;;36.35;16.73;;;;;;;;;;5096684;28;20212;-84
2022/01/28 12:15:14;;;;;;;35.90;17.35;;;;;;;;;;5091185;28;20024;-85
2022/01/28 12:17:41;;;;;;;38.10;16.88;;;;;;;;;;5083347;28;20037;-83
2022/01/28 12:20:19;;;;;;;39.53;15.90;;;;;;;;;;5098594;28;20071;-84
2022/01/28 12:23:00;;;;;;;45.60;19.40;;;;;;;;;;5098684;28;20065;-84
2022/01/28 12:25:36;;;;;;;37.78;19.40;;;;;;;;;;5081179;28;20016;-83
2022/01/28 12:28:11;;;;;;;40.85;17.63;;;;;;;;;;5061193;28;20043;-83
2022/01/28 12:30:37;;;;;;;32.22;15.63;;;;;;;;;;5072958;28;20105;-83
2022/01/28 12:33:03;;;;;;;37.47;16.95;;;;;;;;;;5077160;28;20037;-83
2022/01/28 12:35:29;;;;;;;35.72;18.02;;;;;;;;;;5054713;28;20029;-83
2022/01/28 12:38:01;;;;;;;35.28;16.73;;;;;;;;;;5058897;28;20021;-83
2022/01/28 12:40:29;;;;;;;40.22;17.38;;;;;;;;;;5081935;28;20610;-83
2022/01/28 12:42:55;;;;;;;33.17;16.02;;;;;;;;;;5084109;28;20056;-82
2022/01/28 12:45:22;;;;;;;39.03;16.98;;;;;;;;;;5055005;28;20461;-84
2022/01/28 12:47:48;;;;;;;38.88;16.77;;;;;;;;;;5058290;28;20051;-83
2022/01/28 12:50:16;;;;;;;35.58;17.00;;;;;;;;;;5060330;28;20021;-83
2022/01/28 12:52:45;;;;;;;35.75;15.90;;;;;;;;;;5060144;28;20033;-83
2022/01/28 12:55:12;;;;;;;31.92;15.98;;;;;;;;;;5057671;28;20040;-84
2022/01/28 12:57:42;;;;;;;36.75;15.65;;;;;;;;;;5057241;28;20056;-83
2022/01/28 13:00:08;;;;;;;38.40;16.13;;;;;;;;;;5055211;28;20036;-83
2022/01/28 13:02:34;;;;;;;38.30;15.48;;;;;;;;;;5072567;28;20029;-83
2022/01/28 13:10:32;;;;;;;40.05;16.50;;;;;;;;;;5056464;28;20029;-83
2022/01/28 13:13:03;;;;;;;34.45;14.63;;;;;;;;;;5093300;28;20057;-83
2022/01/28 13:15:29;;;;;;;39.15;16.13;;;;;;;;;;5066582;28;20025;-84
2022/01/28 13:17:57;;;;;;;28.70;15.20;;;;;;;;;;5098664;28;20081;-83
2022/01/28 13:20:24;;;;;;;31.92;14.85;;;;;;;;;;5091665;28;20024;-83
2022/01/28 13:22:51;;;;;;;34.78;14.32;;;;;;;;;;5098032;28;20054;-83
2022/01/28 13:25:22;;;;;;;30.40;14.40;;;;;;;;;;5095341;28;20016;-83
2022/01/28 13:27:52;;;;;;;27.02;12.77;;;;;;;;;;5094067;28;20119;-84
2022/01/28 13:30:19;;;;;;;28.98;13.73;;;;;;;;;;5075708;28;20039;-83
2022/01/28 13:33:05;;;;;;;34.50;15.73;;;;;;;;;;5070343;28;20167;-84
2022/01/28 13:35:33;;;;;;;27.63;13.48;;;;;;;;;;5052414;28;20025;-85
2022/01/28 13:38:02;;;;;;;27.80;13.35;;;;;;;;;;5085975;28;20048;-87
2022/01/28 13:40:28;;;;;;;26.55;13.68;;;;;;;;;;5055857;28;20017;-83
2022/01/28 13:43:01;;;;;;;30.17;12.65;;;;;;;;;;5061206;28;20108;-84
2022/01/28 13:45:36;;;;;;;28.83;13.95;;;;;;;;;;5058015;28;20028;-85
2022/01/28 13:48:02;;;;;;;30.65;14.27;;;;;;;;;;5055905;28;20045;-85
2022/01/28 13:50:29;;;;;;;24.88;12.68;;;;;;;;;;5055321;28;20052;-86
2022/01/28 13:53:19;;;;;;;29.73;12.90;;;;;;;;;;5079081;28;20016;-84
2022/01/28 13:55:45;;;;;;;34.88;14.27;;;;;;;;;;5075593;28;20443;-84
2022/01/28 13:58:11;;;;;;;28.83;14.82;;;;;;;;;;5056741;28;20025;-85
2022/01/28 14:00:48;;;;;;;35.42;15.18;;;;;;;;;;5055276;28;20031;-84
2022/01/28 14:03:15;;;;;;;30.27;14.90;;;;;;;;;;5057743;28;20017;-85
2022/01/28 14:05:57;;;;;;;32.65;15.60;;;;;;;;;;5056426;28;20048;-85
2022/01/28 14:08:43;;;;;;;35.45;15.20;;;;;;;;;;5057636;28;20025;-85
2022/01/28 14:11:22;;;;;;;32.45;15.57;;;;;;;;;;5058903;28;20028;-84
2022/01/28 14:14:09;;;;;;;35.92;16.83;;;;;;;;;;5078550;28;20032;-88
2022/01/28 14:16:35;;;;;;;31.42;14.45;;;;;;;;;;5089607;28;20012;-86
2022/01/28 14:19:01;;;;;;;40.63;14.77;;;;;;;;;;5087652;28;20060;-85
2022/01/28 14:21:27;;;;;;;28.65;15.75;;;;;;;;;;5079155;28;20024;-87
2022/01/28 14:23:53;;;;;;;29.42;14.85;;;;;;;;;;5059395;28;20100;-86
2022/01/28 14:26:20;;;;;;;33.13;14.48;;;;;;;;;;5075740;28;20043;-88
2022/01/28 14:31:25;;;;;;;32.83;14.70;;;;;;;;;;5059548;28;20097;-87
2022/01/28 14:33:52;;;;;;;35.50;16.20;;;;;;;;;;5057541;28;20308;-86
2022/01/28 14:36:18;;;;;;;33.95;16.60;;;;;;;;;;5076779;28;20024;-89
2022/01/28 14:38:46;;;;;;;34.50;15.27;;;;;;;;;;5057679;28;20108;-88
2022/01/28 14:41:12;;;;;;;33.75;15.13;;;;;;;;;;5075483;28;20055;-88
2022/01/28 14:43:38;;;;;;;37.03;17.08;;;;;;;;;;5076513;28;20024;-88
2022/01/28 14:46:04;;;;;;;33.55;15.80;;;;;;;;;;5057821;28;20020;-89
2022/01/28 14:48:31;;;;;;;31.92;16.02;;;;;;;;;;5059273;28;20024;-88
2022/01/28 14:50:57;;;;;;;33.83;17.15;;;;;;;;;;5076895;28;20024;-87
2022/01/28 14:53:23;;;;;;;41.22;16.83;;;;;;;;;;5058020;28;20032;-89
2022/01/28 14:55:49;;;;;;;36.10;15.50;;;;;;;;;;5058400;28;20035;-88
2022/01/28 14:58:15;;;;;;;33.75;16.67;;;;;;;;;;5059009;28;20060;-88
2022/01/28 15:00:41;;;;;;;36.13;15.90;;;;;;;;;;5058291;28;20468;-87
2022/01/28 15:03:09;;;;;;;34.50;16.35;;;;;;;;;;5077159;28;20029;-88
2022/01/28 15:05:36;;;;;;;31.73;15.25;;;;;;;;;;5079022;28;20031;-88
2022/01/28 15:08:07;;;;;;;30.17;14.98;;;;;;;;;;5080061;28;20033;-89
2022/01/28 15:10:34;;;;;;;28.95;13.98;;;;;;;;;;5065839;28;20024;-88
2022/01/28 15:13:00;;;;;;;28.55;15.13;;;;;;;;;;5098640;28;20028;-88
2022/01/28 15:15:26;;;;;;;34.42;15.52;;;;;;;;;;5099418;28;20087;-88
2022/01/28 15:17:52;;;;;;;26.77;13.40;;;;;;;;;;5092793;28;20061;-88
2022/01/28 15:20:18;;;;;;;33.95;16.00;;;;;;;;;;5072951;28;20024;-88
2022/01/28 15:22:44;;;;;;;33.10;16.02;;;;;;;;;;5080550;28;20024;-88
2022/01/28 15:25:10;;;;;;;39.97;17.63;;;;;;;;;;5099472;28;20028;-87
2022/01/28 15:27:36;;;;;;;34.50;16.27;;;;;;;;;;5098735;28;20440;-88
2022/01/28 15:30:27;;;;;;;31.73;16.40;;;;;;;;;;5098326;28;20047;-87
2022/01/28 15:38:20;;;;;;;41.60;16.83;;;;;;;;;;5097854;28;20383;-89
2022/01/28 15:40:46;;;;;;;35.78;18.30;;;;;;;;;;5097462;28;20099;-88
2022/01/28 15:43:12;;;;;;;40.60;18.45;;;;;;;;;;5079829;28;20026;-89
2022/01/28 15:45:40;;;;;;;36.13;18.67;;;;;;;;;;5080132;28;20024;-89
2022/01/28 15:48:06;;;;;;;35.13;17.42;;;;;;;;;;5098621;28;20042;-89
2022/01/28 15:50:32;;;;;;;33.13;15.95;;;;;;;;;;5096341;28;20095;-87
2022/01/28 15:52:58;;;;;;;35.22;16.92;;;;;;;;;;5079288;28;20481;-86
2022/01/28 15:55:24;;;;;;;39.08;16.77;;;;;;;;;;5107576;28;20031;-88
2022/01/28 15:57:50;;;;;;;33.92;15.98;;;;;;;;;;5096950;28;20024;-89
2022/01/28 16:00:17;;;;;;;36.13;17.55;;;;;;;;;;5097342;28;20403;-87